Terminal Aerodrome Forecast
Issued by NWS St Louis, MO

Home | Current Version | Previous Version | Text Only | Print | Product List | Glossary Off
Versions: 1 2 3 4 5 6 7 8 9 10 11 12 13 14 15 16 17 18 19 20 21 22 23

139
FTUS43 KLSX 110259 AAA
TAFSTL
TAF AMD
KSTL 110259Z 1103/1206 15012KT P6SM OVC060
     FM111800 18013G22KT P6SM -RA OVC035
     FM112100 19012G21KT 5SM -RA OVC025
     FM120000 21009KT P6SM OVC015
     FM120500 29009KT P6SM BKN015=

USA.gov is the U.S. government's official web portal to all federal, state and local government web resources and services.